Time,TemperatureF,DewpointF,PressureIn,WindDirection,WindDirectionDegrees,WindSpeedMPH,WindSpeedGustMPH,Humidity,HourlyPrecipIn,Conditions,Clouds,dailyrainin,SolarRadiationWatts/m^2,SoftwareType,DateUTC
2013-02-15 00:21:00,0.0,-5.0,-100.00,WNW,284,0.0,0.0,79,-99.99,,,0.00,0.000000,,2013-02-15 07:21:00,
2013-02-15 00:31:00,0.0,-5.0,-100.00,WNW,284,0.0,0.0,79,-99.99,,,0.00,0.000000,,2013-02-15 07:31:00,
2013-02-15 00:42:00,0.0,-5.0,-100.00,WNW,284,0.0,0.0,79,-99.99,,,0.00,0.000000,,2013-02-15 07:42:00,
2013-02-15 00:52:00,0.0,-5.0,-100.00,WNW,284,0.0,0.0,79,-99.99,,,0.00,0.000000,,2013-02-15 07:52:00,
2013-02-15 01:21:00,0.0,-5.0,-100.00,NNW,335,0.0,0.0,78,-99.99,,,0.00,0.000000,,2013-02-15 08:21:00,
2013-02-15 01:32:00,0.0,-5.0,-100.00,NNW,335,0.0,0.0,78,-99.99,,,0.00,0.000000,,2013-02-15 08:32:00,
2013-02-15 01:42:00,0.0,-5.0,-100.00,NNW,335,0.0,0.0,78,-99.99,,,0.00,0.000000,,2013-02-15 08:42:00,
2013-02-15 01:52:00,0.0,-5.0,-100.00,NNW,335,0.0,0.0,78,-99.99,,,0.00,0.000000,,2013-02-15 08:52:00,
2013-02-15 02:21:00,-1.0,-7.0,-100.00,SW,217,0.0,0.0,76,0.00,,,0.00,0.000000,,2013-02-15 09:21:00,
2013-02-15 02:32:00,-1.0,-7.0,-100.00,SW,217,0.0,0.0,76,0.00,,,0.00,0.000000,,2013-02-15 09:32:00,
2013-02-15 03:21:00,-1.0,-6.0,-100.00,NNW,327,0.0,0.0,77,-99.99,,,0.00,0.000000,,2013-02-15 10:21:00,
2013-02-15 04:23:00,9.0,5.0,-100.00,North,351,0.0,0.0,84,-99.99,,,0.00,0.000000,,2013-02-15 11:23:00,
2013-02-15 04:32:00,9.0,5.0,-100.00,North,351,0.0,0.0,84,-99.99,,,0.00,0.000000,,2013-02-15 11:32:00,
2013-02-15 04:42:00,9.0,5.0,-100.00,North,351,0.0,0.0,84,-99.99,,,0.00,0.000000,,2013-02-15 11:42:00,
2013-02-15 04:52:00,9.0,5.0,-100.00,North,351,0.0,0.0,84,-99.99,,,0.00,0.000000,,2013-02-15 11:52:00,
2013-02-15 05:21:00,15.0,11.0,-100.00,NNW,329,2.0,6.0,84,-99.99,,,0.00,0.000000,,2013-02-15 12:21:00,
2013-02-15 05:32:00,15.0,11.0,-100.00,NNW,329,2.0,6.0,84,-99.99,,,0.00,0.000000,,2013-02-15 12:32:00,
2013-02-15 05:42:00,15.0,11.0,-100.00,NNW,329,2.0,6.0,84,-99.99,,,0.00,0.000000,,2013-02-15 12:42:00,
2013-02-15 05:52:00,15.0,11.0,-100.00,NNW,329,2.0,6.0,84,-99.99,,,0.00,0.000000,,2013-02-15 12:52:00,
2013-02-15 06:22:00,14.0,10.0,-100.00,NNW,339,2.0,5.0,83,0.00,,,-99.99,0.000000,,2013-02-15 13:22:00,
2013-02-15 06:32:00,14.0,10.0,-100.00,NNW,339,2.0,5.0,83,0.00,,,-99.99,0.000000,,2013-02-15 13:32:00,
2013-02-15 06:42:00,14.0,10.0,-100.00,NNW,339,2.0,5.0,83,0.00,,,-99.99,0.000000,,2013-02-15 13:42:00,
2013-02-15 06:52:00,14.0,10.0,-100.00,NNW,339,2.0,5.0,83,0.00,,,-99.99,0.000000,,2013-02-15 13:52:00,
2013-02-15 07:21:00,13.0,9.0,-100.00,NW,322,0.0,5.0,83,0.00,,,0.00,1.000000,,2013-02-15 14:21:00,
2013-02-15 07:32:00,13.0,9.0,-100.00,NW,322,0.0,5.0,83,0.00,,,0.00,1.000000,,2013-02-15 14:32:00,
2013-02-15 07:42:00,13.0,9.0,-100.00,NW,322,0.0,5.0,83,0.00,,,0.00,1.000000,,2013-02-15 14:42:00,
2013-02-15 07:52:00,13.0,9.0,-100.00,NW,322,0.0,5.0,83,0.00,,,0.00,1.000000,,2013-02-15 14:52:00,
2013-02-15 08:21:00,16.0,11.0,-100.00,NNW,340,2.0,5.0,82,0.00,,,0.00,24.000000,,2013-02-15 15:21:00,
2013-02-15 08:32:00,16.0,11.0,-100.00,NNW,340,2.0,5.0,82,0.00,,,0.00,24.000000,,2013-02-15 15:32:00,
2013-02-15 08:42:00,16.0,11.0,-100.00,NNW,340,2.0,5.0,82,0.00,,,0.00,24.000000,,2013-02-15 15:42:00,
2013-02-15 08:51:00,16.0,11.0,-100.00,NNW,340,2.0,5.0,82,0.00,,,0.00,24.000000,,2013-02-15 15:51:00,
2013-02-15 09:22:00,21.0,12.0,-100.00,NNW,344,6.0,15.0,68,0.00,,,0.00,113.000000,,2013-02-15 16:22:00,
2013-02-15 09:32:00,21.0,12.0,-100.00,NNW,344,6.0,15.0,68,0.00,,,0.00,113.000000,,2013-02-15 16:32:00,
2013-02-15 09:42:00,21.0,12.0,-100.00,NNW,344,6.0,15.0,68,0.00,,,0.00,113.000000,,2013-02-15 16:42:00,
2013-02-15 09:51:00,21.0,12.0,-100.00,NNW,344,6.0,15.0,68,0.00,,,0.00,113.000000,,2013-02-15 16:51:00,
2013-02-15 10:21:00,22.0,11.0,-100.00,North,351,7.0,16.0,62,0.00,,,0.00,147.000000,,2013-02-15 17:21:00,
2013-02-15 10:32:00,22.0,11.0,-100.00,North,351,7.0,16.0,62,0.00,,,0.00,147.000000,,2013-02-15 17:32:00,
2013-02-15 10:42:00,22.0,11.0,-100.00,North,351,7.0,16.0,62,0.00,,,0.00,147.000000,,2013-02-15 17:42:00,
2013-02-15 10:52:00,22.0,11.0,-100.00,North,351,7.0,16.0,62,0.00,,,0.00,147.000000,,2013-02-15 17:52:00,
2013-02-15 11:21:00,22.0,6.0,-100.00,North,353,9.0,20.0,50,0.01,,,0.01,226.000000,,2013-02-15 18:21:00,
2013-02-15 11:32:00,22.0,6.0,-100.00,North,353,9.0,20.0,50,0.01,,,0.01,226.000000,,2013-02-15 18:32:00,
2013-02-15 11:42:00,22.0,6.0,-100.00,North,353,9.0,20.0,50,0.01,,,0.01,226.000000,,2013-02-15 18:42:00,
2013-02-15 11:52:00,22.0,6.0,-100.00,North,353,9.0,20.0,50,0.01,,,0.01,226.000000,,2013-02-15 18:52:00,
2013-02-15 12:22:00,22.0,5.0,-100.00,NNW,345,8.0,20.0,47,0.00,,,0.01,371.000000,,2013-02-15 19:22:00,
2013-02-15 12:32:00,22.0,5.0,-100.00,NNW,345,8.0,20.0,47,0.00,,,0.01,371.000000,,2013-02-15 19:32:00,
2013-02-15 12:42:00,22.0,5.0,-100.00,NNW,345,8.0,20.0,47,0.00,,,0.01,371.000000,,2013-02-15 19:42:00,
2013-02-15 12:52:00,22.0,5.0,-100.00,NNW,345,8.0,20.0,47,0.00,,,0.01,371.000000,,2013-02-15 19:52:00,
2013-02-15 13:21:00,25.0,6.0,-100.00,North,353,10.0,22.0,44,0.00,,,0.01,536.000000,,2013-02-15 20:21:00,
2013-02-15 13:32:00,25.0,6.0,-100.00,North,353,10.0,22.0,44,0.00,,,0.01,536.000000,,2013-02-15 20:32:00,
2013-02-15 13:42:00,25.0,6.0,-100.00,North,353,10.0,22.0,44,0.00,,,0.01,536.000000,,2013-02-15 20:42:00,
2013-02-15 13:52:00,25.0,6.0,-100.00,North,353,10.0,22.0,44,0.00,,,0.01,536.000000,,2013-02-15 20:52:00,
2013-02-15 14:21:00,27.0,6.0,-100.00,North,359,8.0,19.0,41,0.02,,,0.03,533.000000,,2013-02-15 21:21:00,
2013-02-15 14:32:00,27.0,6.0,-100.00,North,359,8.0,19.0,41,0.02,,,0.03,533.000000,,2013-02-15 21:32:00,
2013-02-15 14:42:00,27.0,6.0,-100.00,North,359,8.0,19.0,41,0.02,,,0.03,533.000000,,2013-02-15 21:42:00,
2013-02-15 14:52:00,27.0,6.0,-100.00,North,359,8.0,19.0,41,0.02,,,0.03,533.000000,,2013-02-15 21:52:00,
2013-02-15 15:22:00,27.0,6.0,-100.00,North,358,8.0,16.0,40,0.00,,,0.03,50.000000,,2013-02-15 22:22:00,
2013-02-15 15:32:00,27.0,6.0,-100.00,North,358,8.0,16.0,40,0.00,,,0.03,50.000000,,2013-02-15 22:32:00,
2013-02-15 15:41:00,27.0,6.0,-100.00,North,358,8.0,16.0,40,0.00,,,0.03,50.000000,,2013-02-15 22:41:00,
2013-02-15 15:51:00,27.0,6.0,-100.00,North,358,8.0,16.0,40,0.00,,,0.03,50.000000,,2013-02-15 22:51:00,
2013-02-15 16:21:00,28.0,5.0,-100.00,NNW,328,5.0,16.0,37,0.00,,,0.03,44.000000,,2013-02-15 23:21:00,
2013-02-15 16:32:00,28.0,5.0,-100.00,NNW,328,5.0,16.0,37,0.00,,,0.03,44.000000,,2013-02-15 23:32:00,
2013-02-15 16:42:00,28.0,5.0,-100.00,NNW,328,5.0,16.0,37,0.00,,,0.03,44.000000,,2013-02-15 23:42:00,
2013-02-15 16:52:00,28.0,5.0,-100.00,NNW,328,5.0,16.0,37,0.00,,,0.03,44.000000,,2013-02-15 23:52:00,
2013-02-15 17:11:00,24.0,8.0,-100.00,West,261,2.0,12.0,49,0.00,,,0.03,51.000000,,2013-02-16 00:11:00,
2013-02-15 17:21:00,24.0,8.0,-100.00,West,261,2.0,12.0,49,0.00,,,0.03,51.000000,,2013-02-16 00:21:00,
2013-02-15 17:32:00,24.0,8.0,-100.00,West,261,2.0,12.0,49,0.00,,,0.03,51.000000,,2013-02-16 00:32:00,
2013-02-15 17:41:00,24.0,8.0,-100.00,West,261,2.0,12.0,49,0.00,,,0.03,51.000000,,2013-02-16 00:41:00,
2013-02-15 17:51:00,24.0,8.0,-100.00,West,261,2.0,12.0,49,0.00,,,0.03,51.000000,,2013-02-16 00:51:00,
2013-02-15 18:21:00,19.0,10.0,-100.00,WNW,293,0.0,8.0,67,0.00,,,0.03,5.000000,,2013-02-16 01:21:00,
2013-02-15 18:32:00,19.0,10.0,-100.00,WNW,293,0.0,8.0,67,0.00,,,0.03,5.000000,,2013-02-16 01:32:00,
2013-02-15 18:42:00,19.0,10.0,-100.00,WNW,293,0.0,8.0,67,0.00,,,0.03,5.000000,,2013-02-16 01:42:00,
2013-02-15 18:51:00,19.0,10.0,-100.00,WNW,293,0.0,8.0,67,0.00,,,0.03,5.000000,,2013-02-16 01:51:00,
2013-02-15 19:21:00,17.0,10.0,-100.00,NNW,336,0.0,2.0,74,0.00,,,0.03,0.000000,,2013-02-16 02:21:00,
2013-02-15 19:32:00,17.0,10.0,-100.00,NNW,336,0.0,2.0,74,0.00,,,0.03,0.000000,,2013-02-16 02:32:00,
2013-02-15 19:42:00,17.0,10.0,-100.00,NNW,336,0.0,2.0,74,0.00,,,0.03,0.000000,,2013-02-16 02:42:00,
2013-02-15 19:52:00,17.0,10.0,-100.00,NNW,336,0.0,2.0,74,0.00,,,0.03,0.000000,,2013-02-16 02:52:00,
2013-02-15 20:21:00,18.0,11.0,-100.00,North,354,0.0,2.0,75,0.00,,,0.03,0.000000,,2013-02-16 03:21:00,
2013-02-15 20:32:00,18.0,11.0,-100.00,North,354,0.0,2.0,75,0.00,,,0.03,0.000000,,2013-02-16 03:32:00,
2013-02-15 20:42:00,18.0,11.0,-100.00,North,354,0.0,2.0,75,0.00,,,0.03,0.000000,,2013-02-16 03:42:00,
2013-02-15 20:52:00,18.0,11.0,-100.00,North,354,0.0,2.0,75,0.00,,,0.03,0.000000,,2013-02-16 03:52:00,
2013-02-15 21:21:00,18.0,12.0,-100.00,NW,318,0.0,2.0,77,0.00,,,0.03,0.000000,,2013-02-16 04:21:00,
2013-02-15 21:32:00,18.0,12.0,-100.00,NW,318,0.0,2.0,77,0.00,,,0.03,0.000000,,2013-02-16 04:32:00,
2013-02-15 21:42:00,18.0,12.0,-100.00,NW,318,0.0,2.0,77,0.00,,,0.03,0.000000,,2013-02-16 04:42:00,
2013-02-15 21:51:00,18.0,12.0,-100.00,NW,318,0.0,2.0,77,0.00,,,0.03,0.000000,,2013-02-16 04:51:00,
2013-02-15 22:22:00,19.0,13.0,-100.00,South,170,1.0,3.0,77,0.00,,,0.03,0.000000,,2013-02-16 05:22:00,
2013-02-15 22:32:00,19.0,13.0,-100.00,South,170,1.0,3.0,77,0.00,,,0.03,0.000000,,2013-02-16 05:32:00,
2013-02-15 22:42:00,19.0,13.0,-100.00,South,170,1.0,3.0,77,0.00,,,0.03,0.000000,,2013-02-16 05:42:00,
2013-02-15 22:52:00,19.0,13.0,-100.00,South,170,1.0,3.0,77,0.00,,,0.03,0.000000,,2013-02-16 05:52:00,
2013-02-15 23:21:00,19.0,14.0,-100.00,South,178,1.0,3.0,81,0.00,,,0.03,0.000000,,2013-02-16 06:21:00,
2013-02-15 23:32:00,19.0,14.0,-100.00,South,178,1.0,3.0,81,0.00,,,0.03,0.000000,,2013-02-16 06:32:00,
2013-02-15 23:42:00,19.0,14.0,-100.00,South,178,1.0,3.0,81,0.00,,,0.03,0.000000,,2013-02-16 06:42:00,
2013-02-15 23:51:00,19.0,14.0,-100.00,South,178,1.0,3.0,81,0.00,,,0.03,0.000000,,2013-02-16 06:51:00,